Time;durP1;ratioP1;P1;durP2;ratioP2;P2;SDS_P1;SDS_P2;PMS_P1;PMS_P2;Temp;Humidity;BMP_temperature;BMP_pressure;BME280_temperature;BME280_humidity;BME280_pressure;Samples;Min_cycle;Max_cycle;Signal;HPM_P1;HPM_P2
2023/11/27 00:00:24;;;;;;;3.20;1.67;;;11.50;89.50;;;;;;4992391;28;20509;-79
2023/11/27 00:02:52;;;;;;;3.25;1.55;;;11.50;89.50;;;;;;4994311;28;20476;-79
2023/11/27 00:05:17;;;;;;;3.22;1.58;;;11.50;89.50;;;;;;4993069;28;20443;-78
2023/11/27 00:07:43;;;;;;;2.70;1.50;;;11.50;89.60;;;;;;4992894;28;20117;-79
2023/11/27 00:10:09;;;;;;;2.60;1.52;;;11.50;89.50;;;;;;4992928;28;20511;-79
2023/11/27 00:12:34;;;;;;;2.70;1.48;;;11.50;89.50;;;;;;4994162;28;20034;-79
2023/11/27 00:15:00;;;;;;;3.28;1.73;;;11.50;89.50;;;;;;4992871;28;20117;-79
2023/11/27 00:17:25;;;;;;;3.22;1.70;;;11.50;89.50;;;;;;4993892;28;20022;-79
2023/11/27 00:19:51;;;;;;;2.42;1.58;;;11.50;89.50;;;;;;4992585;28;20042;-79
2023/11/27 00:22:16;;;;;;;2.97;1.80;;;11.50;89.50;;;;;;4993933;28;20034;-79
2023/11/27 00:24:42;;;;;;;2.60;1.58;;;11.50;89.50;;;;;;4992767;28;20027;-79
2023/11/27 00:27:08;;;;;;;2.53;1.60;;;11.50;89.50;;;;;;4992622;28;20403;-79
2023/11/27 00:29:34;;;;;;;3.10;1.73;;;11.50;89.60;;;;;;4992534;28;20076;-78
2023/11/27 00:31:59;;;;;;;2.60;1.60;;;11.50;89.50;;;;;;4992859;28;20391;-79
2023/11/27 00:34:25;;;;;;;3.00;1.73;;;11.50;89.50;;;;;;4992779;28;20485;-79
2023/11/27 00:36:51;;;;;;;3.08;1.50;;;11.50;89.50;;;;;;4992690;28;20019;-78
2023/11/27 00:39:16;;;;;;;3.05;1.63;;;11.50;89.50;;;;;;4992379;28;20531;-78
2023/11/27 00:41:42;;;;;;;2.28;1.50;;;11.50;89.50;;;;;;4993698;28;20129;-79
2023/11/27 00:44:07;;;;;;;2.75;1.70;;;11.50;89.50;;;;;;4992686;28;20018;-79
2023/11/27 00:46:33;;;;;;;3.80;1.80;;;11.50;89.50;;;;;;4992608;28;20030;-78
2023/11/27 00:48:58;;;;;;;3.13;1.70;;;11.50;89.50;;;;;;4992205;28;20117;-78
2023/11/27 00:51:24;;;;;;;4.00;1.90;;;11.50;89.50;;;;;;4992351;28;20038;-79
2023/11/27 00:53:49;;;;;;;3.17;1.80;;;11.50;89.50;;;;;;4992605;28;20026;-79
2023/11/27 00:56:15;;;;;;;3.30;2.00;;;11.50;89.50;;;;;;4992483;28;20027;-79
2023/11/27 00:58:40;;;;;;;3.80;1.80;;;11.50;89.50;;;;;;4992129;28;20109;-79
2023/11/27 01:01:06;;;;;;;3.47;1.80;;;11.50;89.50;;;;;;4992487;28;20448;-79
2023/11/27 01:03:32;;;;;;;2.95;1.83;;;11.50;89.50;;;;;;4993783;28;20025;-79
2023/11/27 01:05:58;;;;;;;3.60;1.95;;;11.50;89.40;;;;;;4992577;28;20026;-79
2023/11/27 01:08:24;;;;;;;3.60;1.95;;;11.50;89.40;;;;;;4992157;28;20369;-79
2023/11/27 01:10:50;;;;;;;3.72;2.05;;;11.50;89.40;;;;;;4992458;28;20041;-79
2023/11/27 01:13:15;;;;;;;4.57;1.90;;;11.50;89.50;;;;;;4996803;28;20491;-79
2023/11/27 01:15:41;;;;;;;3.03;1.83;;;11.50;89.40;;;;;;4996156;28;20029;-79
2023/11/27 01:18:07;;;;;;;3.80;2.30;;;11.50;89.50;;;;;;4995731;28;20022;-78
2023/11/27 01:20:33;;;;;;;3.33;1.90;;;11.50;89.40;;;;;;4996099;28;20522;-78
2023/11/27 01:22:58;;;;;;;4.00;2.00;;;11.50;89.40;;;;;;4995908;28;20030;-79
2023/11/27 01:25:24;;;;;;;3.70;1.83;;;11.50;89.40;;;;;;4995985;28;20036;-79
2023/11/27 01:27:50;;;;;;;4.13;2.20;;;11.50;89.40;;;;;;4995780;28;20026;-78
2023/11/27 01:30:18;;;;;;;4.53;2.10;;;11.50;89.50;;;;;;4995809;28;20113;-78
2023/11/27 01:32:47;;;;;;;3.53;1.80;;;11.50;89.40;;;;;;4995768;28;20027;-78
2023/11/27 01:35:12;;;;;;;3.80;2.17;;;11.50;89.40;;;;;;4995784;28;20023;-79
2023/11/27 01:37:38;;;;;;;3.80;1.95;;;11.50;89.40;;;;;;4996736;28;20028;-78
2023/11/27 01:40:04;;;;;;;4.03;1.92;;;11.50;89.40;;;;;;4995692;28;20034;-79
2023/11/27 01:42:30;;;;;;;4.80;2.40;;;11.50;89.30;;;;;;5005490;28;20431;-79
2023/11/27 01:44:55;;;;;;;5.00;2.50;;;11.50;89.40;;;;;;4998600;28;20038;-78
2023/11/27 01:47:24;;;;;;;5.25;2.50;;;11.50;89.40;;;;;;4998155;28;20025;-78
2023/11/27 01:49:50;;;;;;;4.03;2.10;;;11.50;89.30;;;;;;5015814;28;20057;-78
2023/11/27 01:52:16;;;;;;;3.63;2.10;;;11.50;89.40;;;;;;5014596;28;20061;-79
2023/11/27 01:54:43;;;;;;;4.70;2.60;;;11.50;89.40;;;;;;4998402;28;20058;-79
2023/11/27 01:57:15;;;;;;;4.18;2.20;;;11.50;89.30;;;;;;4998438;28;20403;-78
2023/11/27 01:59:50;;;;;;;;;;;11.50;89.30;;;;;;5016419;28;20022;-78
2023/11/27 02:02:16;;;;;;;4.35;2.30;;;11.50;89.30;;;;;;5014790;28;19996;-79
2023/11/27 02:04:41;;;;;;;4.40;2.38;;;11.50;89.30;;;;;;4998254;28;20068;-79
2023/11/27 02:07:08;;;;;;;3.85;2.10;;;11.50;89.30;;;;;;4998222;28;20029;-78
2023/11/27 02:09:33;;;;;;;4.18;2.28;;;11.50;89.30;;;;;;4998050;28;20026;-78
2023/11/27 02:11:59;;;;;;;3.75;2.03;;;11.50;89.30;;;;;;5014474;28;20366;-79
2023/11/27 02:14:24;;;;;;;3.35;2.05;;;11.50;89.80;;;;;;4998325;28;20022;-78
2023/11/27 02:16:50;;;;;;;3.65;2.20;;;11.50;89.40;;;;;;4997960;28;20030;-79
2023/11/27 02:19:16;;;;;;;3.53;2.10;;;11.50;89.30;;;;;;4997980;28;20037;-79
2023/11/27 02:21:43;;;;;;;4.78;2.40;;;11.50;89.30;;;;;;4997969;28;20022;-78
2023/11/27 02:24:08;;;;;;;4.63;2.30;;;11.50;89.30;;;;;;5014879;28;20061;-79
2023/11/27 02:26:34;;;;;;;3.90;2.47;;;11.50;89.30;;;;;;4998070;28;20029;-78
2023/11/27 02:28:59;;;;;;;3.67;2.13;;;11.50;89.30;;;;;;4997718;28;20504;-78
2023/11/27 02:31:25;;;;;;;4.93;2.35;;;11.50;89.30;;;;;;5015350;28;20044;-79
2023/11/27 02:33:51;;;;;;;4.10;2.10;;;11.50;89.30;;;;;;5015317;28;20022;-78
2023/11/27 02:36:17;;;;;;;4.65;2.40;;;11.50;89.30;;;;;;4998019;28;20025;-78
2023/11/27 02:38:42;;;;;;;4.93;2.50;;;11.40;89.20;;;;;;5015086;28;20037;-79
2023/11/27 02:41:08;;;;;;;3.70;2.00;;;11.50;89.30;;;;;;4997789;28;20026;-79
2023/11/27 02:43:34;;;;;;;3.85;2.30;;;11.50;89.30;;;;;;5014025;28;20032;-79
2023/11/27 02:46:00;;;;;;;3.97;2.33;;;11.50;89.30;;;;;;5014016;28;20064;-79
2023/11/27 02:48:26;;;;;;;4.45;2.50;;;11.50;89.20;;;;;;4997562;28;20064;-78
2023/11/27 02:50:51;;;;;;;3.75;2.20;;;11.50;89.30;;;;;;5014095;28;20030;-79
2023/11/27 02:53:17;;;;;;;4.13;2.22;;;11.40;89.20;;;;;;5013893;28;20021;-79
2023/11/27 02:55:42;;;;;;;4.53;2.30;;;11.50;89.30;;;;;;4997517;28;20025;-79
2023/11/27 02:58:08;;;;;;;4.45;2.35;;;11.50;89.20;;;;;;4997302;28;20022;-78
2023/11/27 03:00:34;;;;;;;4.65;2.47;;;11.40;89.20;;;;;;5014847;28;20088;-79
2023/11/27 03:03:00;;;;;;;4.65;2.45;;;11.50;89.30;;;;;;5014787;28;20022;-79
2023/11/27 03:05:26;;;;;;;4.03;2.42;;;11.50;89.20;;;;;;4997256;28;20044;-78
2023/11/27 03:07:52;;;;;;;4.43;2.40;;;11.50;89.20;;;;;;4997121;28;20076;-78
2023/11/27 03:10:17;;;;;;;4.55;2.35;;;11.50;89.20;;;;;;4997135;28;20022;-78
2023/11/27 03:12:43;;;;;;;3.63;2.17;;;11.50;89.20;;;;;;4997089;28;20022;-78
2023/11/27 03:15:09;;;;;;;4.70;2.42;;;11.50;89.20;;;;;;5014503;28;20180;-79
2023/11/27 03:17:35;;;;;;;4.13;2.28;;;11.50;89.20;;;;;;4993149;28;20026;-79
2023/11/27 03:20:01;;;;;;;4.20;2.17;;;11.50;89.10;;;;;;4996842;28;20038;-79
2023/11/27 03:22:26;;;;;;;4.28;2.55;;;11.50;89.10;;;;;;5013232;28;20077;-79
2023/11/27 03:24:52;;;;;;;4.72;2.45;;;11.50;89.20;;;;;;5013365;28;20030;-79
2023/11/27 03:27:17;;;;;;;4.07;2.28;;;11.50;89.30;;;;;;5013196;28;20071;-80
2023/11/27 03:29:43;;;;;;;3.63;2.10;;;11.50;89.20;;;;;;5012988;28;20018;-79
2023/11/27 03:32:09;;;;;;;5.00;2.47;;;11.40;89.20;;;;;;5014314;28;20585;-79
2023/11/27 03:34:35;;;;;;;3.50;2.00;;;11.50;89.20;;;;;;5014024;28;20018;-79
2023/11/27 03:37:00;;;;;;;3.85;2.30;;;11.50;89.20;;;;;;5012457;28;20113;-78
2023/11/27 03:39:26;;;;;;;4.97;2.47;;;11.50;89.30;;;;;;5012914;28;20499;-79
2023/11/27 03:41:52;;;;;;;3.58;2.00;;;11.50;89.20;;;;;;5014063;28;20022;-78
2023/11/27 03:44:17;;;;;;;4.75;2.38;;;11.50;89.20;;;;;;4996579;28;20022;-79
2023/11/27 03:46:43;;;;;;;4.63;2.45;;;11.50;89.20;;;;;;5012820;28;20022;-79
2023/11/27 03:49:09;;;;;;;4.10;2.28;;;11.50;89.20;;;;;;5012394;28;20025;-79
2023/11/27 03:51:34;;;;;;;3.35;2.05;;;11.50;89.20;;;;;;5012558;28;20025;-78
2023/11/27 03:54:00;;;;;;;4.20;2.60;;;11.50;89.20;;;;;;5012587;28;20018;-78
2023/11/27 03:56:25;;;;;;;5.10;2.70;;;11.40;89.10;;;;;;5013950;28;20031;-78
2023/11/27 03:58:51;;;;;;;5.35;2.97;;;11.50;89.10;;;;;;5012744;28;20048;-79
2023/11/27 04:01:16;;;;;;;4.05;2.28;;;11.50;89.10;;;;;;5012501;28;20033;-78
2023/11/27 04:03:41;;;;;;;4.72;2.53;;;11.50;89.20;;;;;;4996169;28;20030;-80
2023/11/27 04:06:08;;;;;;;4.82;2.40;;;11.50;89.10;;;;;;5012627;28;20029;-79
2023/11/27 04:08:37;;;;;;;4.47;2.45;;;11.40;89.10;;;;;;4995829;28;20117;-78
2023/11/27 04:11:04;;;;;;;3.63;2.10;;;11.40;89.10;;;;;;5012372;28;20034;-78
2023/11/27 04:13:29;;;;;;;3.45;2.17;;;11.40;89.10;;;;;;5012343;28;20025;-79
2023/11/27 04:15:55;;;;;;;4.90;2.38;;;11.40;89.20;;;;;;5012385;28;20072;-79
2023/11/27 04:18:20;;;;;;;4.07;2.30;;;11.50;89.20;;;;;;5012012;28;20033;-78
2023/11/27 04:20:46;;;;;;;3.72;2.20;;;11.50;89.10;;;;;;5012394;28;20029;-79
2023/11/27 04:23:11;;;;;;;3.33;2.08;;;11.50;89.10;;;;;;4995924;28;20484;-79
2023/11/27 04:25:37;;;;;;;4.57;2.38;;;11.50;89.10;;;;;;5012005;28;20072;-79
2023/11/27 04:28:02;;;;;;;4.03;2.22;;;11.50;89.10;;;;;;5011934;28;20033;-78
2023/11/27 04:30:28;;;;;;;4.18;2.30;;;11.50;89.10;;;;;;5012313;28;20058;-79
2023/11/27 04:32:53;;;;;;;4.07;2.40;;;11.50;89.10;;;;;;4996036;28;20018;-79
2023/11/27 04:35:19;;;;;;;3.80;2.10;;;11.50;89.20;;;;;;5012143;28;20022;-79
2023/11/27 04:37:44;;;;;;;4.60;2.30;;;11.40;89.00;;;;;;5012101;28;20022;-79
2023/11/27 04:40:14;;;;;;;4.00;2.20;;;11.40;89.00;;;;;;5012086;28;20030;-78
2023/11/27 04:42:40;;;;;;;3.88;1.95;;;11.50;89.00;;;;;;4995912;28;20033;-79
2023/11/27 04:45:07;;;;;;;3.60;2.10;;;11.40;89.00;;;;;;4995815;28;20029;-79
2023/11/27 04:47:33;;;;;;;4.50;2.25;;;11.40;88.90;;;;;;5014190;28;20030;-78
2023/11/27 04:49:58;;;;;;;3.70;2.20;;;11.50;89.00;;;;;;5016140;28;20030;-78
2023/11/27 04:52:24;;;;;;;3.97;2.20;;;11.50;89.00;;;;;;5017410;28;20439;-79
2023/11/27 04:54:49;;;;;;;3.67;2.33;;;11.40;88.90;;;;;;5016277;28;20537;-79
2023/11/27 04:57:15;;;;;;;3.63;1.90;;;11.40;88.90;;;;;;5015855;28;20026;-78
2023/11/27 04:59:40;;;;;;;4.38;2.30;;;11.50;88.90;;;;;;5015916;28;20028;-79
2023/11/27 05:02:06;;;;;;;3.97;2.10;;;11.50;88.90;;;;;;5016131;28;20034;-79
2023/11/27 05:04:33;;;;;;;3.70;2.17;;;11.40;88.80;;;;;;5016038;28;20037;-79
2023/11/27 05:07:02;;;;;;;4.28;2.10;;;11.40;88.80;;;;;;5017164;28;20024;-78
2023/11/27 05:09:28;;;;;;;4.28;2.20;;;11.50;88.80;;;;;;4999416;28;20033;-79
2023/11/27 05:11:54;;;;;;;4.38;2.38;;;11.40;88.80;;;;;;5015902;28;20022;-79
2023/11/27 05:14:19;;;;;;;4.38;2.30;;;11.40;88.80;;;;;;5017180;28;20026;-79
2023/11/27 05:16:45;;;;;;;3.65;2.00;;;11.40;88.90;;;;;;5017089;28;20080;-78
2023/11/27 05:19:10;;;;;;;4.10;2.10;;;11.40;88.80;;;;;;4998982;28;20026;-79
2023/11/27 05:21:36;;;;;;;3.80;1.90;;;11.40;88.80;;;;;;4999302;28;20088;-79
2023/11/27 05:24:02;;;;;;;3.72;2.00;;;11.40;88.80;;;;;;4999356;28;20443;-79
2023/11/27 05:26:28;;;;;;;3.58;2.10;;;11.40;88.80;;;;;;4999400;28;20496;-79
2023/11/27 05:28:54;;;;;;;3.70;2.08;;;11.40;88.80;;;;;;4999095;28;20087;-79
2023/11/27 05:31:22;;;;;;;3.65;2.10;;;11.50;88.90;;;;;;4998680;28;20053;-78
2023/11/27 05:33:48;;;;;;;3.72;1.90;;;11.40;88.80;;;;;;4998987;28;20050;-79
2023/11/27 05:36:13;;;;;;;4.63;2.20;;;11.40;88.80;;;;;;5016804;28;20099;-79
2023/11/27 05:38:39;;;;;;;3.17;1.90;;;11.40;88.80;;;;;;5016532;28;20077;-79
2023/11/27 05:41:07;;;;;;;3.17;1.90;;;11.40;88.80;;;;;;4999128;28;20120;-79
2023/11/27 05:43:33;;;;;;;3.75;1.92;;;11.40;88.80;;;;;;5016562;28;20044;-79
2023/11/27 05:45:58;;;;;;;2.88;1.77;;;11.40;88.80;;;;;;4998810;28;20488;-79
2023/11/27 05:48:24;;;;;;;3.63;2.03;;;11.40;88.80;;;;;;4998605;28;20026;-78
2023/11/27 05:50:49;;;;;;;3.83;2.20;;;11.40;88.90;;;;;;5016199;28;20042;-79
2023/11/27 05:53:15;;;;;;;3.83;2.00;;;11.40;88.80;;;;;;4998458;28;20018;-78
2023/11/27 05:55:41;;;;;;;3.65;1.92;;;11.40;88.80;;;;;;4998737;28;20026;-79
2023/11/27 05:58:07;;;;;;;3.80;2.03;;;11.40;88.80;;;;;;4997559;28;20026;-79
2023/11/27 06:00:32;;;;;;;3.03;1.83;;;11.40;88.80;;;;;;5001113;28;20026;-79
2023/11/27 06:06:09;;;;;;;3.83;1.83;;;11.40;88.80;;;;;;5002853;28;20513;-79
2023/11/27 06:08:34;;;;;;;2.85;1.73;;;11.40;88.80;;;;;;4996010;28;20480;-79
2023/11/27 06:11:06;;;;;;;2.92;1.92;;;11.40;88.90;;;;;;4995717;28;20124;-78
2023/11/27 06:13:32;;;;;;;3.47;1.92;;;11.40;88.80;;;;;;4995015;28;20064;-79
2023/11/27 06:15:58;;;;;;;4.22;2.08;;;11.50;88.80;;;;;;4995925;28;20042;-79
2023/11/27 06:18:23;;;;;;;3.15;1.80;;;11.40;88.80;;;;;;5012431;28;20575;-80
2023/11/27 06:20:49;;;;;;;3.13;1.90;;;11.40;88.80;;;;;;4995991;28;20026;-79
2023/11/27 06:23:15;;;;;;;3.45;1.90;;;11.50;88.70;;;;;;4996185;28;20065;-79
2023/11/27 06:25:41;;;;;;;2.95;1.75;;;11.40;88.60;;;;;;4996691;28;20029;-79
2023/11/27 06:28:13;;;;;;;4.55;2.10;;;11.40;88.60;;;;;;4995801;28;20526;-79
2023/11/27 06:30:39;;;;;;;3.85;2.20;;;11.40;88.60;;;;;;4995885;28;20034;-78
2023/11/27 06:33:04;;;;;;;3.72;1.95;;;11.50;88.60;;;;;;4995797;28;20037;-79
2023/11/27 06:35:30;;;;;;;3.50;2.10;;;11.40;88.60;;;;;;5013327;28;20029;-79
2023/11/27 06:37:55;;;;;;;3.25;2.00;;;11.40;88.60;;;;;;4995788;28;20048;-79
2023/11/27 06:40:24;;;;;;;2.97;1.80;;;11.40;88.60;;;;;;4995720;28;20018;-79
2023/11/27 06:42:49;;;;;;;3.10;1.88;;;12.00;88.90;;;;;;4996431;28;20026;-78
2023/11/27 06:45:15;;;;;;;5.25;2.20;;;11.40;88.50;;;;;;4994958;28;20036;-78
2023/11/27 06:47:41;;;;;;;2.95;1.65;;;11.30;88.40;;;;;;4994650;28;20026;-79
2023/11/27 06:50:44;;;;;;;3.28;1.90;;;11.40;88.40;;;;;;4997978;28;20029;-79
2023/11/27 06:53:24;;;;;;;3.67;1.88;;;11.40;88.40;;;;;;5014721;28;20048;-79
2023/11/27 06:55:55;;;;;;;3.97;2.03;;;11.40;88.40;;;;;;4989890;28;20038;-79
2023/11/27 06:58:24;;;;;;;3.22;1.88;;;11.40;88.40;;;;;;4994668;28;20034;-79
2023/11/27 07:00:50;;;;;;;2.78;1.90;;;11.40;88.40;;;;;;4992629;28;20042;-79
2023/11/27 07:03:15;;;;;;;3.90;2.00;;;11.40;88.40;;;;;;5010722;28;20163;-78
2023/11/27 07:05:41;;;;;;;3.65;2.00;;;11.40;88.40;;;;;;4991797;28;20026;-78
2023/11/27 07:08:06;;;;;;;4.35;2.20;;;11.40;88.30;;;;;;4992193;28;20022;-78
2023/11/27 07:10:32;;;;;;;4.20;2.13;;;11.40;88.30;;;;;;5009675;28;20105;-78
2023/11/27 07:12:58;;;;;;;4.80;2.28;;;11.40;88.30;;;;;;4992744;28;20036;-79
2023/11/27 07:15:23;;;;;;;3.17;1.90;;;11.40;88.20;;;;;;4992280;28;20061;-78
2023/11/27 07:17:49;;;;;;;3.30;2.00;;;11.40;88.30;;;;;;4992681;28;20245;-78
2023/11/27 07:20:18;;;;;;;3.38;1.85;;;11.40;88.20;;;;;;4991352;28;20038;-78
2023/11/27 07:22:47;;;;;;;2.78;1.80;;;11.40;88.20;;;;;;4990860;28;20126;-79
2023/11/27 07:25:16;;;;;;;2.97;1.85;;;11.40;88.20;;;;;;4990168;28;20038;-78
2023/11/27 07:27:49;;;;;;;3.10;1.98;;;11.40;88.20;;;;;;4990614;28;20068;-79
2023/11/27 07:30:16;;;;;;;4.45;2.20;;;11.40;88.30;;;;;;4989953;28;20532;-77
2023/11/27 07:32:42;;;;;;;3.80;2.10;;;11.40;88.20;;;;;;4990108;28;20117;-78
2023/11/27 07:35:10;;;;;;;3.63;2.00;;;11.40;88.20;;;;;;4990481;28;20056;-78
2023/11/27 07:37:37;;;;;;;3.53;2.10;;;11.40;88.20;;;;;;4989631;28;20029;-79
2023/11/27 07:40:05;;;;;;;3.05;1.85;;;11.40;88.20;;;;;;5009125;28;20026;-79
2023/11/27 07:42:30;;;;;;;3.10;1.80;;;11.40;88.20;;;;;;4990848;28;20519;-78
2023/11/27 07:44:56;;;;;;;3.92;2.13;;;11.40;88.20;;;;;;4991149;28;20042;-77
2023/11/27 07:47:22;;;;;;;3.70;2.10;;;11.40;88.20;;;;;;5006643;28;20037;-78
2023/11/27 07:49:48;;;;;;;3.40;1.98;;;11.40;88.20;;;;;;5006726;28;20038;-77
2023/11/27 07:52:14;;;;;;;3.35;1.85;;;11.40;88.20;;;;;;4991101;28;20075;-79
2023/11/27 07:54:41;;;;;;;3.03;1.80;;;11.40;88.30;;;;;;5004609;28;20030;-77
2023/11/27 07:57:07;;;;;;;3.72;2.08;;;11.40;88.30;;;;;;5006286;28;20022;-79
2023/11/27 07:59:33;;;;;;;2.85;1.77;;;11.40;88.20;;;;;;4989602;28;20029;-78
2023/11/27 08:02:00;;;;;;;3.60;2.00;;;11.40;88.30;;;;;;4988645;28;20074;-79
2023/11/27 08:04:25;;;;;;;3.65;2.13;;;11.40;88.20;;;;;;4986654;28;20567;-78
2023/11/27 08:06:51;;;;;;;3.00;2.10;;;11.40;88.20;;;;;;4978103;28;20113;-78
2023/11/27 08:09:17;;;;;;;3.42;1.80;;;11.40;88.20;;;;;;4986305;28;20332;-79
2023/11/27 08:11:42;;;;;;;3.78;2.22;;;11.40;88.20;;;;;;5007027;28;20052;-78
2023/11/27 08:14:10;;;;;;;3.70;2.00;;;11.40;88.20;;;;;;5007710;28;20022;-78
2023/11/27 08:16:35;;;;;;;3.20;1.80;;;11.40;88.20;;;;;;4987961;28;20030;-78
2023/11/27 08:19:01;;;;;;;3.83;1.92;;;11.40;88.20;;;;;;4982883;28;20068;-79
2023/11/27 08:21:27;;;;;;;5.28;2.10;;;11.40;88.20;;;;;;5002551;28;20594;-78
2023/11/27 08:23:52;;;;;;;3.28;2.00;;;11.40;88.20;;;;;;4990866;28;20036;-79
2023/11/27 08:26:19;;;;;;;3.55;2.00;;;11.40;88.20;;;;;;4987641;28;20025;-78
2023/11/27 08:28:45;;;;;;;3.70;1.88;;;11.40;88.20;;;;;;5001541;28;20026;-78
2023/11/27 08:31:10;;;;;;;4.20;2.10;;;11.40;88.20;;;;;;4982836;28;20109;-79
2023/11/27 08:33:37;;;;;;;3.45;1.95;;;11.30;88.10;;;;;;4991874;28;20188;-79
2023/11/27 08:36:03;;;;;;;3.25;1.80;;;11.40;88.20;;;;;;4990719;28;20593;-78
2023/11/27 08:38:30;;;;;;;3.47;1.83;;;11.30;88.60;;;;;;4990634;28;20026;-79
2023/11/27 08:40:56;;;;;;;3.92;1.92;;;11.40;88.20;;;;;;5007037;28;20030;-78
2023/11/27 08:43:22;;;;;;;4.22;2.08;;;11.40;88.10;;;;;;4983239;28;20026;-77
2023/11/27 08:45:48;;;;;;;4.35;2.10;;;11.40;88.20;;;;;;4989023;28;20062;-79
2023/11/27 08:48:15;;;;;;;3.10;1.60;;;11.40;88.10;;;;;;4987374;28;20064;-78
2023/11/27 08:50:41;;;;;;;3.50;1.92;;;11.30;88.10;;;;;;4987422;28;20544;-78
2023/11/27 08:53:08;;;;;;;3.22;1.83;;;11.40;88.10;;;;;;4999349;28;20156;-78
2023/11/27 08:55:34;;;;;;;3.15;1.90;;;11.40;88.20;;;;;;4987069;28;20030;-77
2023/11/27 08:58:03;;;;;;;3.17;1.75;;;11.40;88.10;;;;;;4987815;28;20030;-78
2023/11/27 09:00:29;;;;;;;3.35;1.88;;;11.40;88.30;;;;;;4987762;28;20030;-78
2023/11/27 09:02:56;;;;;;;3.17;1.90;;;11.30;88.20;;;;;;4990576;28;20073;-77
2023/11/27 09:05:34;;;;;;;3.65;1.90;;;11.40;88.20;;;;;;5009924;28;20080;-80
2023/11/27 09:08:05;;;;;;;3.75;1.90;;;11.40;88.20;;;;;;4983745;28;20063;-78
2023/11/27 09:10:32;;;;;;;3.25;2.00;;;11.30;88.20;;;;;;4987872;28;20034;-78
2023/11/27 09:12:57;;;;;;;3.40;1.83;;;11.40;88.20;;;;;;5005000;28;20025;-78
2023/11/27 09:15:23;;;;;;;3.65;1.75;;;11.40;88.30;;;;;;4991239;28;20029;-79
2023/11/27 09:17:48;;;;;;;3.42;1.80;;;11.40;88.30;;;;;;4986005;28;20388;-79
2023/11/27 09:20:15;;;;;;;3.08;1.80;;;11.30;88.20;;;;;;5006375;28;20488;-78
2023/11/27 09:22:41;;;;;;;4.28;2.05;;;11.40;88.20;;;;;;4990171;28;20030;-78
2023/11/27 09:25:12;;;;;;;3.13;1.80;;;11.40;88.20;;;;;;4990588;28;20080;-78
2023/11/27 09:27:38;;;;;;;3.70;2.00;;;11.40;88.10;;;;;;4989812;28;20118;-79
2023/11/27 09:30:07;;;;;;;2.80;1.88;;;11.40;88.10;;;;;;4989874;28;20044;-79
2023/11/27 09:32:32;;;;;;;3.75;2.17;;;11.40;88.20;;;;;;5007998;28;20777;-78
2023/11/27 09:34:58;;;;;;;3.47;1.95;;;11.40;88.10;;;;;;4994384;28;20057;-79
2023/11/27 09:40:19;;;;;;;4.28;2.25;;;11.40;88.10;;;;;;5365706;23;20062;-77
2023/11/27 09:42:45;;;;;;;3.15;1.85;;;11.40;88.20;;;;;;4995165;28;20040;-78
2023/11/27 09:45:11;;;;;;;3.22;1.90;;;11.40;88.10;;;;;;4989913;28;20026;-78
2023/11/27 09:47:43;;;;;;;3.22;2.03;;;11.40;87.80;;;;;;4994391;28;20053;-78
2023/11/27 09:50:12;;;;;;;3.70;2.10;;;11.40;87.50;;;;;;5025845;28;20411;-78
2023/11/27 09:52:54;;;;;;;3.95;2.20;;;11.40;87.50;;;;;;5017761;28;20030;-78
2023/11/27 09:55:20;;;;;;;3.60;1.98;;;11.30;87.40;;;;;;5017819;28;20112;-78
2023/11/27 09:57:47;;;;;;;2.63;1.60;;;11.30;87.60;;;;;;5017917;28;20025;-78
2023/11/27 10:00:14;;;;;;;2.88;1.70;;;11.30;87.60;;;;;;5017478;28;20029;-76
2023/11/27 10:02:40;;;;;;;4.15;2.20;;;11.30;87.50;;;;;;5040010;28;20040;-78
2023/11/27 10:05:08;;;;;;;4.70;2.13;;;11.30;87.50;;;;;;5017627;28;20025;-79
2023/11/27 10:07:38;;;;;;;3.45;2.05;;;11.30;86.70;;;;;;5035510;28;20486;-77
2023/11/27 10:10:07;;;;;;;4.10;1.85;;;11.30;86.50;;;;;;5034696;28;20026;-78
2023/11/27 10:12:35;;;;;;;4.43;2.20;;;11.40;86.60;;;;;;5016963;28;20025;-77
2023/11/27 10:15:02;;;;;;;4.15;2.10;;;11.30;86.70;;;;;;5017193;28;20506;-79
2023/11/27 10:17:29;;;;;;;4.95;2.22;;;11.40;86.80;;;;;;5017238;28;20033;-78
2023/11/27 10:19:58;;;;;;;3.60;2.10;;;11.30;86.90;;;;;;5016899;28;20503;-78
2023/11/27 10:22:29;;;;;;;3.25;2.17;;;11.30;86.90;;;;;;5018567;28;20402;-77
2023/11/27 10:25:01;;;;;;;3.45;1.92;;;11.30;86.90;;;;;;5036984;28;20083;-78
2023/11/27 10:27:26;;;;;;;3.63;2.00;;;11.30;87.00;;;;;;5036982;28;20514;-78
2023/11/27 10:29:53;;;;;;;3.38;1.98;;;11.30;87.00;;;;;;5036714;28;20036;-78
2023/11/27 10:32:22;;;;;;;3.30;2.00;;;11.30;87.10;;;;;;5037064;28;20025;-78
2023/11/27 10:34:49;;;;;;;3.50;2.00;;;11.30;87.10;;;;;;5054493;28;20104;-78
2023/11/27 10:37:16;;;;;;;3.90;2.00;;;11.30;87.10;;;;;;5036898;28;20112;-78
2023/11/27 10:39:41;;;;;;;3.22;1.80;;;11.30;87.10;;;;;;5054223;28;20021;-78
2023/11/27 10:42:07;;;;;;;3.70;2.10;;;11.30;87.20;;;;;;5036465;28;20040;-78
2023/11/27 10:44:35;;;;;;;3.38;2.00;;;11.30;87.20;;;;;;5035891;28;20064;-78
2023/11/27 10:47:03;;;;;;;3.35;1.80;;;11.30;87.20;;;;;;5036417;28;20021;-77
2023/11/27 10:49:32;;;;;;;4.32;1.92;;;11.30;87.20;;;;;;5035932;28;20039;-79
2023/11/27 10:51:59;;;;;;;4.00;2.00;;;11.30;87.20;;;;;;5054311;28;20025;-78
2023/11/27 10:54:27;;;;;;;3.53;2.00;;;11.30;87.20;;;;;;5036253;28;20041;-78
2023/11/27 10:56:55;;;;;;;2.67;1.73;;;11.30;87.30;;;;;;5036152;28;20047;-79
2023/11/27 10:59:22;;;;;;;3.33;1.90;;;11.30;87.90;;;;;;5053815;28;20017;-78
2023/11/27 11:01:51;;;;;;;2.85;1.70;;;11.30;87.40;;;;;;5036119;28;20032;-78
2023/11/27 11:04:29;;;;;;;3.05;1.90;;;11.30;87.40;;;;;;5036199;28;20027;-78
2023/11/27 11:06:57;;;;;;;2.92;1.80;;;11.30;87.30;;;;;;5036038;28;20028;-78
2023/11/27 11:09:25;;;;;;;3.33;1.90;;;11.30;87.30;;;;;;5053185;28;20021;-77
2023/11/27 11:11:52;;;;;;;2.80;1.60;;;11.30;87.40;;;;;;5035334;28;20033;-77
2023/11/27 11:14:19;;;;;;;2.80;1.70;;;11.30;87.40;;;;;;5035858;28;20486;-78
2023/11/27 11:17:11;;;;;;;3.83;1.88;;;11.30;87.40;;;;;;5053228;28;20028;-78
2023/11/27 11:20:13;;;;;;;3.90;1.95;;;11.30;87.50;;;;;;5035422;28;20581;-78
2023/11/27 11:23:27;;;;;;;4.10;2.20;;;11.30;87.40;;;;;;5053687;28;20048;-78
2023/11/27 11:26:23;;;;;;;2.70;1.65;;;11.30;87.50;;;;;;5032801;28;20099;-78
2023/11/27 11:29:11;;;;;;;3.60;1.80;;;11.30;87.50;;;;;;5035240;28;20021;-79
2023/11/27 11:31:43;;;;;;;2.75;1.75;;;11.30;87.50;;;;;;5053604;28;20029;-77
2023/11/27 11:34:09;;;;;;;3.22;1.80;;;11.30;87.50;;;;;;5035690;28;20028;-78
2023/11/27 11:36:35;;;;;;;2.92;1.80;;;11.30;87.50;;;;;;5053290;28;20025;-77
2023/11/27 11:39:07;;;;;;;3.40;1.90;;;11.30;87.50;;;;;;5035370;28;20021;-78
2023/11/27 11:41:33;;;;;;;;;;;11.30;87.50;;;;;;5036151;28;20032;-79
2023/11/27 11:44:07;;;;;;;3.28;1.67;;;11.30;87.50;;;;;;5038954;28;19911;-79
2023/11/27 11:46:38;;;;;;;3.92;1.85;;;11.20;87.40;;;;;;5024308;28;20037;-78
2023/11/27 11:49:07;;;;;;;3.78;1.75;;;11.30;86.30;;;;;;5056614;28;20029;-79
2023/11/27 11:51:40;;;;;;;4.60;1.95;;;11.30;86.70;;;;;;5023873;28;20066;-79
2023/11/27 11:54:09;;;;;;;3.85;2.00;;;11.30;86.70;;;;;;5017192;28;20041;-79
2023/11/27 11:56:49;;;;;;;3.13;1.60;;;11.30;86.90;;;;;;5013483;28;20474;-78
2023/11/27 11:59:17;;;;;;;3.17;1.83;;;11.30;87.00;;;;;;5016237;28;20104;-78
2023/11/27 12:01:43;;;;;;;3.28;1.70;;;11.40;87.10;;;;;;5015127;28;20060;-78
2023/11/27 12:04:36;;;;;;;3.20;1.90;;;11.30;87.00;;;;;;5006170;28;20499;-78
2023/11/27 12:07:03;;;;;;;3.35;1.80;;;11.30;87.10;;;;;;4979063;28;20056;-78
2023/11/27 12:09:31;;;;;;;2.50;1.60;;;11.30;87.20;;;;;;4995292;28;20033;-79
2023/11/27 12:11:58;;;;;;;2.90;1.77;;;11.30;87.20;;;;;;5012916;28;20085;-79
2023/11/27 12:14:26;;;;;;;3.53;2.15;;;11.30;87.30;;;;;;4997272;28;20716;-79
2023/11/27 12:16:54;;;;;;;1.95;1.35;;;11.30;87.30;;;;;;4998802;28;20387;-79
2023/11/27 12:19:22;;;;;;;3.17;1.58;;;11.20;87.30;;;;;;4993427;28;20069;-78
2023/11/27 12:22:35;;;;;;;3.38;1.80;;;11.30;87.30;;;;;;4982009;28;20044;-78
2023/11/27 12:25:02;;;;;;;3.10;1.80;;;11.30;87.30;;;;;;5016700;28;20026;-78
2023/11/27 12:27:28;;;;;;;4.50;1.75;;;11.30;87.50;;;;;;5007476;28;20022;-78
2023/11/27 12:29:57;;;;;;;4.20;1.73;;;11.30;87.10;;;;;;5034974;28;20456;-78
2023/11/27 12:32:28;;;;;;;3.85;1.88;;;11.30;87.00;;;;;;5018439;28;20045;-78
2023/11/27 12:34:59;;;;;;;2.80;1.58;;;11.30;87.00;;;;;;5020639;28;20033;-78
2023/11/27 12:37:31;;;;;;;3.40;1.80;;;11.30;87.10;;;;;;5007868;28;20046;-78
2023/11/27 12:40:23;;;;;;;2.45;1.50;;;11.30;87.00;;;;;;5036657;28;20083;-78
2023/11/27 12:42:59;;;;;;;3.20;1.60;;;11.30;87.10;;;;;;4975227;28;20070;-78
2023/11/27 12:45:34;;;;;;;3.28;1.63;;;11.30;87.50;;;;;;4968856;28;20038;-79
2023/11/27 12:48:15;;;;;;;2.83;1.52;;;11.30;87.10;;;;;;4984235;28;20134;-78
2023/11/27 12:50:41;;;;;;;3.35;1.70;;;11.30;87.10;;;;;;4963093;28;20572;-78
2023/11/27 12:56:32;;;;;;;2.88;1.60;;;11.30;87.10;;;;;;4923530;28;20133;-78
2023/11/27 13:00:04;;;;;;;3.33;1.80;;;11.40;87.10;;;;;;4990004;28;20014;-78